Time;durP1;ratioP1;P1;durP2;ratioP2;P2;SDS_P1;SDS_P2;PMS_P1;PMS_P2;Temp;Humidity;BMP_temperature;BMP_pressure;BME280_temperature;BME280_humidity;BME280_pressure;Samples;Min_cycle;Max_cycle;Signal;HPM_P1;HPM_P2
2022/04/23 00:01:42;;;;;;;7.35;3.65;;;12.30;99.90;;;;;;5006748;28;20113;-81
2022/04/23 00:04:12;;;;;;;8.35;4.22;;;12.20;99.90;;;;;;5007068;28;20169;-79
2022/04/23 00:06:38;;;;;;;13.07;4.25;;;12.10;99.90;;;;;;5006738;28;20022;-81
2022/04/23 00:09:05;;;;;;;6.55;3.40;;;12.10;99.90;;;;;;5006576;28;20034;-83
2022/04/23 00:11:32;;;;;;;9.77;4.78;;;12.00;99.90;;;;;;4988642;28;20475;-79
2022/04/23 00:13:58;;;;;;;12.00;4.43;;;12.00;99.90;;;;;;4989306;28;20034;-79
2022/04/23 00:16:24;;;;;;;9.70;4.88;;;11.90;99.90;;;;;;5006415;28;20026;-82
2022/04/23 00:18:51;;;;;;;5.63;3.42;;;11.90;99.90;;;;;;5006827;28;20508;-82
2022/04/23 00:21:18;;;;;;;6.22;4.22;;;11.70;99.90;;;;;;4988634;28;20105;-80
2022/04/23 00:23:46;;;;;;;8.13;3.90;;;11.70;99.90;;;;;;5005829;28;20026;-79
2022/04/23 00:26:12;;;;;;;9.32;4.30;;;11.60;99.90;;;;;;5006177;28;20133;-79
2022/04/23 00:28:37;;;;;;;13.63;5.32;;;11.60;99.90;;;;;;5006305;28;20022;-78
2022/04/23 00:31:05;;;;;;;9.10;4.00;;;11.50;99.90;;;;;;5006318;28;20172;-79
2022/04/23 00:33:37;;;;;;;10.63;4.28;;;11.50;99.90;;;;;;5005197;28;20022;-79
2022/04/23 00:36:06;;;;;;;10.75;4.10;;;11.40;99.90;;;;;;4988728;28;20030;-82
2022/04/23 00:38:36;;;;;;;15.35;4.18;;;11.40;99.90;;;;;;4988917;28;20030;-78
2022/04/23 00:41:01;;;;;;;7.38;4.07;;;11.30;99.90;;;;;;5006218;28;20629;-82
2022/04/23 00:43:35;;;;;;;9.10;4.75;;;11.30;99.90;;;;;;5005870;28;20053;-79
2022/04/23 00:46:02;;;;;;;10.02;4.03;;;11.30;99.90;;;;;;4988779;28;20042;-76
2022/04/23 00:48:28;;;;;;;7.95;4.35;;;11.20;99.90;;;;;;4988609;28;20129;-79
2022/04/23 00:50:56;;;;;;;6.28;3.53;;;11.20;99.90;;;;;;4988362;28;20101;-80
2022/04/23 00:53:23;;;;;;;10.65;4.75;;;11.10;99.90;;;;;;5006176;28;20085;-79
2022/04/23 00:55:49;;;;;;;9.35;4.15;;;11.10;99.90;;;;;;5005773;28;20037;-78
2022/04/23 00:58:16;;;;;;;8.63;4.78;;;11.10;99.90;;;;;;4988622;28;20045;-77
2022/04/23 01:00:43;;;;;;;13.75;5.38;;;11.10;99.90;;;;;;4988721;28;20053;-77
2022/04/23 01:03:12;;;;;;;10.00;4.47;;;11.00;99.90;;;;;;4988268;28;20073;-78
2022/04/23 01:05:44;;;;;;;8.55;4.60;;;11.00;99.90;;;;;;5005799;28;20112;-79
2022/04/23 01:08:12;;;;;;;7.45;4.13;;;10.90;99.90;;;;;;5006082;28;20030;-83
2022/04/23 01:10:38;;;;;;;10.07;4.68;;;10.90;99.90;;;;;;5004097;28;20039;-77
2022/04/23 01:13:04;;;;;;;10.23;4.50;;;10.80;99.90;;;;;;5004365;28;20053;-78
2022/04/23 01:15:30;;;;;;;7.22;4.38;;;10.80;99.90;;;;;;5005729;28;20026;-79
2022/04/23 01:17:55;;;;;;;10.20;4.82;;;10.70;99.90;;;;;;5003922;28;20033;-76
2022/04/23 01:20:22;;;;;;;7.63;4.10;;;10.70;99.90;;;;;;5005873;28;20110;-78
2022/04/23 01:22:47;;;;;;;10.98;4.45;;;10.70;99.90;;;;;;4988936;28;20045;-78
2022/04/23 01:25:14;;;;;;;10.15;4.32;;;10.70;99.90;;;;;;5005937;28;20046;-79
2022/04/23 01:27:40;;;;;;;13.65;3.95;;;10.60;99.90;;;;;;4988827;28;20030;-77
2022/04/23 01:30:10;;;;;;;9.85;4.68;;;10.50;99.90;;;;;;4987865;28;20398;-77
2022/04/23 01:32:36;;;;;;;8.05;4.20;;;10.50;99.90;;;;;;5004129;28;20050;-77
2022/04/23 01:35:01;;;;;;;8.00;3.92;;;10.50;99.90;;;;;;5005420;28;20042;-78
2022/04/23 01:37:27;;;;;;;8.13;3.67;;;10.50;99.90;;;;;;5004999;28;20023;-78
2022/04/23 01:39:53;;;;;;;11.20;5.00;;;10.50;99.90;;;;;;5004022;28;20073;-80
2022/04/23 01:42:19;;;;;;;10.57;4.43;;;10.40;99.90;;;;;;5004084;28;20431;-79
2022/04/23 01:44:50;;;;;;;13.45;3.88;;;10.40;99.90;;;;;;5005219;28;20066;-79
2022/04/23 01:47:16;;;;;;;9.43;4.55;;;10.40;99.90;;;;;;5005347;28;20029;-80
2022/04/23 01:49:44;;;;;;;7.25;4.38;;;10.40;99.90;;;;;;5005158;28;20066;-77
2022/04/23 01:52:10;;;;;;;11.20;4.55;;;10.30;99.90;;;;;;5003705;28;20029;-80
2022/04/23 01:54:35;;;;;;;9.90;4.57;;;10.30;99.90;;;;;;5005297;28;20054;-77
2022/04/23 01:57:02;;;;;;;5.05;3.47;;;10.20;99.90;;;;;;5005207;28;20022;-77
2022/04/23 01:59:28;;;;;;;7.93;4.88;;;10.20;99.90;;;;;;5004948;28;20088;-79
2022/04/23 02:01:54;;;;;;;6.30;3.72;;;10.20;99.90;;;;;;4988016;28;20030;-81
2022/04/23 02:04:19;;;;;;;15.27;5.38;;;10.20;99.90;;;;;;4987629;28;20509;-79
2022/04/23 02:06:45;;;;;;;9.55;4.15;;;10.20;99.90;;;;;;5005296;28;20027;-79
2022/04/23 02:09:11;;;;;;;16.90;4.35;;;10.20;99.90;;;;;;5009222;28;20463;-78
2022/04/23 02:11:37;;;;;;;8.20;3.88;;;10.10;99.90;;;;;;5008907;28;20026;-79
2022/04/23 02:14:03;;;;;;;6.35;3.55;;;10.00;99.90;;;;;;5007690;28;20111;-80
2022/04/23 02:16:29;;;;;;;11.02;4.45;;;10.10;99.90;;;;;;5008896;28;20030;-78
2022/04/23 02:18:57;;;;;;;8.65;4.80;;;10.00;99.90;;;;;;5008937;28;20046;-79
2022/04/23 02:21:26;;;;;;;8.57;4.47;;;9.90;99.90;;;;;;5008493;28;20026;-79
2022/04/23 02:23:53;;;;;;;8.68;4.20;;;9.90;99.90;;;;;;4991433;28;20056;-80
2022/04/23 02:26:20;;;;;;;8.50;3.78;;;9.90;99.90;;;;;;5008767;28;20411;-80
2022/04/23 02:28:47;;;;;;;9.05;4.50;;;9.80;99.90;;;;;;5008729;28;20030;-81
2022/04/23 02:31:13;;;;;;;6.55;4.60;;;9.80;99.90;;;;;;5008788;28;20061;-81
2022/04/23 02:33:39;;;;;;;7.72;4.10;;;9.80;99.90;;;;;;5008460;28;20030;-80
2022/04/23 02:36:06;;;;;;;11.38;4.60;;;9.70;99.90;;;;;;5008504;28;20019;-83
2022/04/23 02:38:32;;;;;;;11.50;5.18;;;9.70;99.90;;;;;;5007038;28;20042;-78
2022/04/23 02:41:08;;;;;;;9.43;4.05;;;9.60;99.90;;;;;;5008148;28;20065;-81
2022/04/23 02:43:38;;;;;;;9.73;4.35;;;9.50;99.90;;;;;;5008493;28;20040;-81
2022/04/23 02:46:07;;;;;;;8.27;3.97;;;9.40;99.90;;;;;;5008509;28;20418;-79
2022/04/23 02:48:32;;;;;;;6.68;3.75;;;9.40;99.90;;;;;;5007888;28;20030;-80
2022/04/23 02:50:58;;;;;;;7.00;4.30;;;9.30;99.90;;;;;;5008170;28;20027;-79
2022/04/23 02:53:23;;;;;;;7.68;4.47;;;9.30;99.90;;;;;;5008384;28;20050;-80
2022/04/23 02:55:51;;;;;;;6.72;4.13;;;9.20;99.90;;;;;;5008192;28;20034;-82
2022/04/23 02:58:17;;;;;;;10.15;4.68;;;9.20;99.90;;;;;;4990983;28;20097;-80
2022/04/23 03:00:43;;;;;;;9.25;4.18;;;9.20;99.90;;;;;;4990793;28;20042;-79
2022/04/23 03:03:10;;;;;;;12.63;4.25;;;9.10;99.90;;;;;;5006831;28;20023;-83
2022/04/23 03:05:36;;;;;;;7.57;3.80;;;9.10;99.90;;;;;;5008209;28;20033;-80
2022/04/23 03:08:05;;;;;;;6.85;3.22;;;9.00;99.90;;;;;;4990228;28;20030;-80
2022/04/23 03:10:31;;;;;;;7.93;3.70;;;9.00;99.90;;;;;;5006632;28;20109;-80
2022/04/23 03:12:57;;;;;;;10.13;4.28;;;9.00;99.90;;;;;;5007984;28;20058;-80
2022/04/23 03:15:26;;;;;;;4.70;2.65;;;8.80;99.90;;;;;;4990270;28;20034;-79
2022/04/23 03:18:13;;;;;;;10.15;4.35;;;8.80;99.90;;;;;;5007883;28;20034;-81
2022/04/23 03:20:43;;;;;;;4.13;2.72;;;8.70;99.90;;;;;;5006673;28;20046;-79
2022/04/23 03:23:09;;;;;;;6.22;3.97;;;8.70;99.90;;;;;;5027131;28;20096;-79
2022/04/23 03:25:35;;;;;;;6.15;3.53;;;8.70;99.90;;;;;;5027089;28;20108;-81
2022/04/23 03:28:01;;;;;;;5.45;2.92;;;8.60;99.90;;;;;;5027391;28;20026;-80
2022/04/23 03:30:28;;;;;;;6.15;3.40;;;8.60;99.90;;;;;;5027110;28;20030;-79
2022/04/23 03:32:54;;;;;;;8.98;3.92;;;8.60;99.90;;;;;;5009691;28;20030;-80
2022/04/23 03:35:20;;;;;;;7.72;3.95;;;8.50;99.90;;;;;;5027087;28;20028;-82
2022/04/23 03:37:48;;;;;;;6.47;3.78;;;8.50;99.90;;;;;;5027016;28;20383;-79
2022/04/23 03:40:15;;;;;;;9.80;4.57;;;8.40;99.90;;;;;;5027525;28;20034;-80
2022/04/23 03:42:45;;;;;;;6.72;3.20;;;8.40;99.90;;;;;;5009272;28;20033;-78
2022/04/23 03:45:10;;;;;;;7.20;4.13;;;8.30;99.90;;;;;;5009047;28;20025;-80
2022/04/23 03:47:36;;;;;;;5.63;3.50;;;8.30;99.90;;;;;;5020210;28;20473;-79
2022/04/23 03:50:06;;;;;;;9.50;4.78;;;8.30;99.90;;;;;;4989582;28;20037;-78
2022/04/23 03:52:32;;;;;;;9.05;3.55;;;8.30;99.90;;;;;;4989310;28;20058;-80
2022/04/23 03:54:57;;;;;;;12.68;3.95;;;8.30;99.90;;;;;;5007246;28;20037;-80
2022/04/23 03:57:23;;;;;;;6.00;3.13;;;8.20;99.90;;;;;;5006830;28;20038;-80
2022/04/23 03:59:49;;;;;;;6.90;3.75;;;8.20;99.90;;;;;;5007042;28;20491;-77
2022/04/23 04:02:14;;;;;;;6.75;3.88;;;8.10;99.90;;;;;;5009362;28;20034;-76
2022/04/23 04:04:41;;;;;;;9.20;4.03;;;8.20;99.90;;;;;;5026370;28;20030;-75
2022/04/23 04:07:07;;;;;;;9.50;3.75;;;8.10;99.90;;;;;;5009070;28;20034;-79
2022/04/23 04:09:32;;;;;;;5.53;3.50;;;8.10;99.90;;;;;;5026544;28;20090;-77
2022/04/23 04:12:06;;;;;;;7.57;3.55;;;8.10;99.90;;;;;;5026016;28;20037;-77
2022/04/23 04:14:34;;;;;;;5.18;2.97;;;8.10;99.90;;;;;;5008814;28;20036;-76
2022/04/23 04:17:01;;;;;;;9.27;3.35;;;8.10;99.90;;;;;;5008590;28;20141;-78
2022/04/23 04:19:32;;;;;;;8.15;3.40;;;8.00;99.90;;;;;;5004466;28;20075;-77
2022/04/23 04:21:58;;;;;;;11.50;3.67;;;8.00;99.90;;;;;;5021761;28;20053;-78
2022/04/23 04:24:25;;;;;;;12.30;4.07;;;8.00;99.90;;;;;;5026356;28;20026;-76
2022/04/23 04:26:56;;;;;;;6.60;3.85;;;7.90;99.90;;;;;;5025823;28;20498;-80
2022/04/23 04:29:22;;;;;;;5.65;3.45;;;8.00;99.90;;;;;;5008354;28;20037;-77
2022/04/23 04:31:49;;;;;;;5.78;3.33;;;7.90;99.90;;;;;;5025927;28;20029;-78
2022/04/23 04:34:28;;;;;;;7.80;4.18;;;7.90;99.90;;;;;;5007112;28;20038;-77
2022/04/23 04:37:08;;;;;;;6.32;3.92;;;7.90;99.90;;;;;;5018382;28;20026;-76
2022/04/23 04:39:35;;;;;;;6.70;3.67;;;7.90;99.90;;;;;;5006521;28;20046;-77
2022/04/23 04:42:01;;;;;;;6.22;3.92;;;7.90;99.90;;;;;;4988126;28;20113;-77
2022/04/23 04:44:27;;;;;;;6.50;3.90;;;7.90;99.90;;;;;;5006272;28;20026;-77
2022/04/23 04:46:53;;;;;;;6.60;3.17;;;7.90;99.90;;;;;;4988332;28;20033;-79
2022/04/23 04:49:19;;;;;;;6.88;3.47;;;7.90;99.90;;;;;;4988509;28;20041;-77
2022/04/23 04:51:44;;;;;;;9.80;3.95;;;7.90;99.90;;;;;;5006274;28;20390;-75
2022/04/23 04:54:10;;;;;;;6.50;3.50;;;7.80;99.90;;;;;;5006010;28;20022;-78
2022/04/23 04:56:35;;;;;;;6.28;3.53;;;7.90;99.90;;;;;;5009363;28;20038;-76
2022/04/23 04:59:01;;;;;;;5.38;3.60;;;7.90;99.90;;;;;;5007794;28;20038;-80
2022/04/23 05:01:28;;;;;;;6.82;4.13;;;7.90;99.90;;;;;;5004257;28;20855;-75
2022/04/23 05:03:54;;;;;;;11.35;3.92;;;7.90;99.90;;;;;;5005893;28;20031;-76
2022/04/23 05:06:21;;;;;;;7.25;3.30;;;7.90;99.90;;;;;;5006148;28;20143;-77
2022/04/23 05:08:48;;;;;;;8.35;3.75;;;7.90;99.90;;;;;;4987918;28;20026;-74
2022/04/23 05:11:13;;;;;;;5.70;3.78;;;8.00;99.90;;;;;;4988150;28;20034;-75
2022/04/23 05:13:39;;;;;;;12.95;3.92;;;8.00;99.90;;;;;;4988446;28;20023;-76
2022/04/23 05:16:06;;;;;;;8.45;4.05;;;7.90;99.90;;;;;;4987880;28;20387;-74
2022/04/23 05:18:32;;;;;;;6.95;4.07;;;8.00;99.90;;;;;;5005585;28;20026;-76
2022/04/23 05:20:58;;;;;;;10.60;4.45;;;8.00;99.90;;;;;;5002926;28;20093;-74
2022/04/23 05:23:24;;;;;;;6.97;3.95;;;8.10;99.90;;;;;;4991264;28;20538;-74
2022/04/23 05:25:50;;;;;;;5.88;3.90;;;8.10;99.90;;;;;;5006648;28;20042;-74
2022/04/23 05:28:15;;;;;;;8.23;4.63;;;8.10;99.90;;;;;;4996090;28;20026;-76
2022/04/23 05:30:41;;;;;;;11.68;5.22;;;8.10;99.90;;;;;;5020113;28;20080;-77
2022/04/23 05:33:06;;;;;;;7.35;4.18;;;8.20;99.90;;;;;;5024437;28;20081;-74
2022/04/23 05:35:33;;;;;;;8.93;4.70;;;8.20;99.90;;;;;;5007590;28;20101;-75
2022/04/23 05:37:59;;;;;;;7.13;4.28;;;8.30;99.90;;;;;;5024887;28;20026;-75
2022/04/23 05:40:24;;;;;;;9.23;4.80;;;8.30;99.90;;;;;;5025055;28;20034;-77
2022/04/23 05:42:50;;;;;;;9.18;4.13;;;8.40;99.90;;;;;;5018582;28;20056;-76
2022/04/23 05:45:16;;;;;;;10.25;4.47;;;8.40;99.90;;;;;;5004012;28;20134;-77
2022/04/23 05:47:42;;;;;;;9.73;5.07;;;8.50;99.90;;;;;;5005604;28;20034;-77
2022/04/23 05:50:09;;;;;;;9.75;4.47;;;8.50;99.90;;;;;;5005278;28;20050;-76
2022/04/23 05:52:37;;;;;;;9.68;4.68;;;8.50;99.90;;;;;;5005031;28;20030;-73
2022/04/23 05:55:04;;;;;;;8.32;4.25;;;8.60;99.90;;;;;;5005354;28;20129;-77
2022/04/23 05:57:33;;;;;;;6.05;3.63;;;8.60;99.90;;;;;;4994718;28;20122;-77
2022/04/23 05:59:59;;;;;;;8.73;4.38;;;8.60;99.90;;;;;;4995180;28;20049;-75
2022/04/23 06:02:25;;;;;;;8.43;4.30;;;8.70;99.90;;;;;;5012701;28;20030;-79
2022/04/23 06:04:52;;;;;;;11.73;5.30;;;8.70;99.90;;;;;;5024864;28;20109;-74
2022/04/23 06:07:18;;;;;;;8.93;4.60;;;8.80;99.90;;;;;;5006172;28;20382;-76
2022/04/23 06:09:44;;;;;;;17.63;4.57;;;8.80;99.90;;;;;;5017069;28;20030;-78
2022/04/23 06:12:10;;;;;;;7.80;4.53;;;8.90;99.90;;;;;;5004683;28;20030;-76
2022/04/23 06:14:35;;;;;;;11.20;5.30;;;9.00;99.90;;;;;;5005149;28;20057;-75
2022/04/23 06:17:01;;;;;;;10.18;4.47;;;9.00;99.90;;;;;;5005692;28;20045;-76
2022/04/23 06:19:30;;;;;;;7.95;4.85;;;9.00;99.90;;;;;;5006835;28;20037;-74
2022/04/23 06:21:57;;;;;;;8.50;4.65;;;9.20;99.90;;;;;;5024088;28;20030;-78
2022/04/23 06:24:23;;;;;;;6.45;3.92;;;9.20;99.90;;;;;;5007124;28;20080;-76
2022/04/23 06:26:48;;;;;;;12.38;4.82;;;9.30;99.90;;;;;;5006381;28;20504;-77
2022/04/23 06:29:14;;;;;;;11.30;4.28;;;9.40;99.90;;;;;;5006974;28;20038;-76
2022/04/23 06:31:39;;;;;;;12.10;5.18;;;9.40;99.90;;;;;;5024782;28;20045;-77
2022/04/23 06:34:05;;;;;;;8.93;4.95;;;9.50;99.90;;;;;;5024267;28;20057;-76
2022/04/23 06:36:31;;;;;;;8.10;4.28;;;9.60;99.90;;;;;;5024805;28;20111;-77
2022/04/23 06:38:57;;;;;;;8.32;4.35;;;9.60;99.90;;;;;;5024338;28;20034;-75
2022/04/23 06:41:23;;;;;;;8.63;4.82;;;9.70;99.90;;;;;;5001890;28;20037;-76
2022/04/23 06:43:49;;;;;;;11.48;5.43;;;9.90;99.90;;;;;;5022214;28;20022;-77
2022/04/23 06:46:14;;;;;;;8.23;4.55;;;10.00;99.90;;;;;;5006968;28;20052;-77
2022/04/23 06:48:40;;;;;;;11.20;4.13;;;10.00;99.90;;;;;;5024321;28;20026;-76
2022/04/23 06:51:05;;;;;;;10.55;5.30;;;10.10;99.90;;;;;;5024544;28;20026;-75
2022/04/23 06:53:31;;;;;;;7.05;4.32;;;10.30;99.90;;;;;;5025405;28;20033;-76
2022/04/23 06:56:01;;;;;;;10.18;5.13;;;10.30;99.90;;;;;;5027801;28;20056;-80
2022/04/23 06:58:27;;;;;;;16.77;5.20;;;10.40;99.90;;;;;;5027730;28;20048;-75
2022/04/23 07:00:53;;;;;;;10.82;5.20;;;10.60;99.90;;;;;;5027482;28;20073;-75
2022/04/23 07:03:20;;;;;;;10.55;4.82;;;10.70;99.90;;;;;;5028073;28;20487;-77
2022/04/23 07:05:47;;;;;;;10.13;5.43;;;10.70;99.90;;;;;;5010272;28;20021;-77
2022/04/23 07:08:13;;;;;;;11.05;4.90;;;10.80;99.90;;;;;;5027301;28;20018;-77
2022/04/23 07:10:38;;;;;;;6.20;4.03;;;10.90;99.90;;;;;;5027867;28;20370;-75
2022/04/23 07:13:04;;;;;;;9.38;4.80;;;11.00;99.90;;;;;;5027421;28;20026;-77
2022/04/23 07:15:34;;;;;;;12.30;5.15;;;11.10;99.90;;;;;;5027353;28;20061;-78
2022/04/23 07:17:59;;;;;;;10.02;5.15;;;11.20;99.90;;;;;;5009785;28;20034;-75
2022/04/23 07:20:25;;;;;;;10.02;5.38;;;11.40;99.90;;;;;;5025358;28;20064;-76
2022/04/23 07:25:36;;;;;;;7.30;4.53;;;11.60;99.90;;;;;;5007723;28;20057;-73
2022/04/23 07:28:03;;;;;;;9.13;4.55;;;11.80;99.90;;;;;;5007355;28;20036;-74
2022/04/23 07:30:30;;;;;;;8.70;4.05;;;11.90;99.90;;;;;;5007332;28;20026;-75
2022/04/23 07:32:57;;;;;;;9.25;5.22;;;12.00;99.90;;;;;;5007486;28;20065;-76
2022/04/23 07:38:16;;;;;;;9.90;5.75;;;12.20;99.90;;;;;;5007469;28;20058;-75
2022/04/23 07:40:42;;;;;;;;;;;12.40;99.90;;;;;;5008022;28;20035;-76
2022/04/23 07:43:10;;;;;;;12.93;5.70;;;12.50;99.90;;;;;;5007161;28;19974;-76
2022/04/23 07:45:37;;;;;;;10.27;5.75;;;12.60;99.90;;;;;;4989816;28;20077;-76
2022/04/23 07:48:04;;;;;;;15.98;5.30;;;12.80;99.90;;;;;;5042283;28;20043;-75
2022/04/23 07:50:31;;;;;;;11.77;5.53;;;12.90;99.90;;;;;;5008333;28;20184;-75
2022/04/23 07:52:57;;;;;;;12.95;4.82;;;13.00;99.90;;;;;;5015944;28;20097;-76
2022/04/23 07:55:23;;;;;;;9.18;4.63;;;13.00;99.90;;;;;;5008411;28;20037;-74
2022/04/23 07:57:49;;;;;;;6.40;4.18;;;13.10;99.90;;;;;;5026321;28;20018;-75
2022/04/23 08:00:16;;;;;;;14.30;5.10;;;13.30;99.90;;;;;;5009185;28;20140;-76
2022/04/23 08:02:41;;;;;;;11.93;5.53;;;13.40;99.90;;;;;;5026841;28;20026;-77
2022/04/23 08:05:09;;;;;;;11.90;5.20;;;13.50;99.90;;;;;;5025408;28;20032;-75
2022/04/23 08:07:39;;;;;;;11.10;4.82;;;13.60;99.90;;;;;;5008916;28;20075;-72
2022/04/23 08:10:06;;;;;;;8.20;4.20;;;13.70;99.90;;;;;;5022736;28;20036;-77
2022/04/23 08:12:35;;;;;;;12.07;4.47;;;13.80;99.90;;;;;;5016894;28;20088;-74
2022/04/23 08:15:01;;;;;;;11.95;4.30;;;13.70;99.90;;;;;;5026451;28;20030;-75
2022/04/23 08:17:26;;;;;;;8.05;4.15;;;13.80;99.90;;;;;;5010102;28;20027;-76
2022/04/23 08:19:53;;;;;;;10.00;4.63;;;13.90;99.90;;;;;;5006495;28;20108;-77
2022/04/23 08:22:18;;;;;;;8.93;4.47;;;14.00;99.90;;;;;;5006993;28;20026;-75
2022/04/23 08:24:45;;;;;;;6.68;3.78;;;14.10;99.90;;;;;;4988897;28;20421;-75
2022/04/23 08:27:10;;;;;;;5.43;3.25;;;14.20;99.90;;;;;;5006283;28;20541;-76
2022/04/23 08:32:21;;;;;;;6.07;3.80;;;14.50;99.90;;;;;;5006464;28;20034;-75
2022/04/23 08:34:48;;;;;;;7.05;3.60;;;14.50;99.90;;;;;;4989022;28;20106;-76
2022/04/23 08:37:13;;;;;;;5.90;3.15;;;14.60;99.90;;;;;;5002987;28;20034;-78
2022/04/23 08:39:45;;;;;;;5.78;3.35;;;14.70;99.90;;;;;;5021858;28;20045;-78
2022/04/23 08:42:11;;;;;;;7.85;3.35;;;14.90;99.90;;;;;;5025210;28;20104;-75
2022/04/23 08:44:40;;;;;;;5.97;3.53;;;15.20;99.90;;;;;;5018456;28;20491;-74
2022/04/23 08:47:08;;;;;;;8.60;3.92;;;15.40;99.90;;;;;;5020369;28;20068;-72
2022/04/23 08:49:39;;;;;;;5.20;2.92;;;15.60;99.90;;;;;;5019202;28;20034;-76
2022/04/23 08:52:21;;;;;;;4.72;2.63;;;15.50;99.90;;;;;;5024396;28;20037;-76
2022/04/23 08:54:47;;;;;;;4.47;2.53;;;15.70;99.90;;;;;;5005476;28;20049;-75
2022/04/23 08:57:13;;;;;;;5.38;2.78;;;15.70;99.90;;;;;;5005826;28;20093;-73
2022/04/23 08:59:39;;;;;;;4.07;2.47;;;15.80;99.90;;;;;;5005617;28;20594;-74
2022/04/23 09:02:13;;;;;;;8.40;2.78;;;15.90;99.90;;;;;;5016255;28;20080;-75
2022/04/23 09:04:42;;;;;;;3.10;2.33;;;15.90;99.90;;;;;;4989210;28;20057;-74
2022/04/23 09:07:17;;;;;;;3.72;2.22;;;15.80;99.90;;;;;;5019712;28;20058;-75
2022/04/23 09:09:51;;;;;;;5.03;2.38;;;15.90;99.90;;;;;;4999107;28;20041;-71
2022/04/23 09:12:17;;;;;;;6.40;2.72;;;15.90;99.90;;;;;;5023208;28;20474;-77
2022/04/23 09:14:46;;;;;;;2.83;2.03;;;15.90;99.90;;;;;;5006823;28;20042;-73
2022/04/23 09:25:40;;;;;;;11.45;2.85;;;16.30;99.90;;;;;;5004727;28;20418;-76
2022/04/23 09:28:29;;;;;;;4.70;2.53;;;16.30;99.90;;;;;;5004861;28;20023;-75
2022/04/23 09:30:55;;;;;;;3.83;2.20;;;16.50;99.90;;;;;;5005523;28;20085;-77
2022/04/23 09:33:30;;;;;;;17.23;2.17;;;16.60;99.90;;;;;;4988286;28;20034;-76
2022/04/23 09:35:57;;;;;;;13.25;1.80;;;16.70;99.90;;;;;;4987972;28;20046;-71
2022/04/23 09:38:27;;;;;;;6.95;1.95;;;16.70;99.90;;;;;;5013192;28;20053;-75
2022/04/23 09:41:15;;;;;;;2.85;1.77;;;16.70;99.90;;;;;;5019478;28;20041;-74
2022/04/23 09:44:09;;;;;;;4.78;1.80;;;16.80;99.90;;;;;;5006996;28;20399;-76
2022/04/23 09:46:48;;;;;;;2.55;1.73;;;16.80;99.90;;;;;;5025164;28;20021;-75
2022/04/23 09:49:21;;;;;;;3.25;2.08;;;16.80;99.90;;;;;;5025181;28;20034;-75
2022/04/23 09:52:02;;;;;;;2.70;1.42;;;16.90;99.90;;;;;;5023746;28;20038;-74
2022/04/23 09:54:28;;;;;;;5.25;2.55;;;17.00;99.60;;;;;;5021724;28;20060;-76
2022/04/23 09:56:55;;;;;;;3.40;1.70;;;17.10;99.70;;;;;;5017440;28;20026;-78
2022/04/23 09:59:21;;;;;;;2.97;1.60;;;17.30;99.60;;;;;;5002680;28;20061;-74
2022/04/23 10:01:49;;;;;;;4.55;2.15;;;17.30;99.90;;;;;;5004831;28;20038;-74
2022/04/23 10:04:24;;;;;;;2.97;1.83;;;17.40;99.90;;;;;;5005309;28;20038;-75
2022/04/23 10:06:51;;;;;;;2.15;1.52;;;17.60;99.60;;;;;;5004966;28;20026;-73
2022/04/23 10:09:21;;;;;;;2.72;1.67;;;17.70;99.00;;;;;;4987963;28;20038;-74
2022/04/23 10:11:49;;;;;;;3.97;1.70;;;17.80;98.20;;;;;;5004890;28;20023;-77
2022/04/23 10:14:20;;;;;;;4.38;1.73;;;17.80;97.70;;;;;;5005203;28;20045;-72
2022/04/23 10:16:48;;;;;;;1.50;1.23;;;17.90;96.50;;;;;;5004027;28;20104;-78
2022/04/23 10:19:15;;;;;;;5.32;1.73;;;17.90;96.70;;;;;;4987320;28;20042;-77
2022/04/23 10:21:59;;;;;;;3.28;1.67;;;17.90;96.50;;;;;;5005080;28;20023;-76
2022/04/23 10:24:41;;;;;;;2.47;1.48;;;17.90;96.10;;;;;;5015760;28;20038;-71
2022/04/23 10:27:09;;;;;;;2.55;1.33;;;17.90;95.60;;;;;;5024459;28;20406;-74
2022/04/23 10:29:36;;;;;;;2.95;1.45;;;18.00;96.40;;;;;;5027193;28;20022;-74
2022/04/23 10:32:10;;;;;;;4.90;1.75;;;18.30;95.90;;;;;;5028272;28;20116;-75
2022/04/23 10:34:37;;;;;;;3.22;1.60;;;18.40;95.60;;;;;;5028201;28;20033;-75
2022/04/23 10:37:18;;;;;;;2.13;1.55;;;18.50;95.40;;;;;;5028268;28;20041;-73
2022/04/23 10:40:04;;;;;;;3.65;2.30;;;18.60;95.30;;;;;;5028214;28;20091;-73
2022/04/23 10:42:32;;;;;;;6.60;1.77;;;18.50;94.10;;;;;;4993462;28;20049;-75
2022/04/23 10:45:03;;;;;;;5.25;1.98;;;18.50;94.80;;;;;;5010482;28;20029;-72
2022/04/23 10:47:39;;;;;;;4.05;1.90;;;18.50;93.90;;;;;;5027797;28;20056;-74
2022/04/23 10:50:19;;;;;;;2.53;1.70;;;18.50;94.60;;;;;;5010628;28;20065;-75
2022/04/23 10:52:46;;;;;;;2.70;1.77;;;18.60;94.10;;;;;;5027836;28;20022;-76
2022/04/23 10:55:16;;;;;;;3.75;1.73;;;18.60;94.90;;;;;;5009801;28;20030;-75
2022/04/23 10:58:12;;;;;;;9.68;1.85;;;18.90;95.50;;;;;;5010118;28;20025;-75
2022/04/23 11:00:44;;;;;;;2.88;1.55;;;19.00;94.20;;;;;;5027226;28;20049;-75
2022/04/23 11:03:10;;;;;;;2.83;1.60;;;19.20;94.10;;;;;;5028137;28;20026;-77
2022/04/23 11:14:07;;;;;;;6.93;2.28;;;19.90;92.30;;;;;;5027694;28;20037;-76
2022/04/23 11:16:34;;;;;;;1.83;1.27;;;19.90;92.90;;;;;;5027502;28;20036;-77
2022/04/23 11:19:00;;;;;;;2.72;1.88;;;20.00;92.30;;;;;;5027478;28;20065;-75
2022/04/23 11:21:28;;;;;;;3.58;1.67;;;20.00;93.20;;;;;;5009477;28;20033;-72
2022/04/23 11:23:56;;;;;;;3.20;1.77;;;20.00;92.80;;;;;;5027451;28;20470;-75
2022/04/23 11:26:38;;;;;;;2.72;1.40;;;20.10;92.00;;;;;;5026750;28;20052;-74
2022/04/23 11:29:04;;;;;;;4.30;1.65;;;20.10;91.60;;;;;;5027115;28;20105;-79
2022/04/23 11:31:30;;;;;;;4.00;1.88;;;20.10;91.90;;;;;;5027225;28;20445;-74
2022/04/23 11:33:57;;;;;;;2.42;1.60;;;20.10;91.60;;;;;;5027286;28;20057;-75
2022/04/23 11:36:31;;;;;;;3.90;2.10;;;20.10;91.50;;;;;;5027035;28;20089;-73
2022/04/23 11:39:06;;;;;;;2.97;1.50;;;20.30;90.60;;;;;;5026834;28;20056;-73
2022/04/23 11:41:47;;;;;;;3.20;1.67;;;20.30;91.10;;;;;;5026339;28;20398;-73
2022/04/23 11:44:20;;;;;;;4.35;1.92;;;20.30;90.30;;;;;;5026829;28;20036;-76
2022/04/23 11:46:51;;;;;;;3.37;1.73;;;20.40;91.30;;;;;;5027363;28;20018;-75
2022/04/23 11:49:31;;;;;;;5.45;2.40;;;20.50;91.40;;;;;;5027213;28;20308;-76
2022/04/23 11:52:14;;;;;;;1.85;1.40;;;20.70;90.70;;;;;;5026824;28;20108;-75
2022/04/23 11:54:45;;;;;;;4.28;1.90;;;21.00;91.30;;;;;;5009383;28;20092;-74
2022/04/23 11:57:25;;;;;;;2.17;1.52;;;21.30;91.80;;;;;;5022530;28;20294;-76
2022/04/23 12:00:06;;;;;;;3.10;1.80;;;21.50;91.30;;;;;;5000934;28;20089;-78
2022/04/23 12:02:32;;;;;;;2.92;1.48;;;21.70;90.40;;;;;;5007210;28;20108;-76
2022/04/23 12:05:12;;;;;;;4.07;2.00;;;21.70;92.50;;;;;;5024541;28;20029;-77
2022/04/23 12:07:38;;;;;;;3.63;2.15;;;21.90;92.30;;;;;;5008453;28;20041;-78
2022/04/23 12:10:04;;;;;;;6.78;2.17;;;22.00;90.30;;;;;;4980888;28;20026;-77
2022/04/23 12:12:32;;;;;;;3.17;1.75;;;22.10;89.80;;;;;;5013195;28;20018;-76
2022/04/23 12:15:01;;;;;;;3.92;2.25;;;22.10;88.50;;;;;;5032535;28;20033;-76
2022/04/23 12:17:29;;;;;;;3.15;1.83;;;22.10;89.40;;;;;;5032880;28;20085;-77
2022/04/23 12:19:59;;;;;;;3.05;1.65;;;22.20;90.30;;;;;;5027460;28;20091;-76
2022/04/23 12:22:31;;;;;;;2.60;1.48;;;22.30;90.80;;;;;;5046075;28;20026;-75
2022/04/23 12:25:16;;;;;;;3.17;1.90;;;22.40;90.10;;;;;;5030476;28;20032;-77
2022/04/23 12:42:05;;;;;;;2.53;1.67;;;22.40;85.20;;;;;;5010019;28;20088;-75
2022/04/23 12:44:35;;;;;;;3.08;1.70;;;22.30;87.00;;;;;;4994831;28;20097;-78
2022/04/23 12:47:06;;;;;;;2.75;2.08;;;22.50;89.60;;;;;;5011100;28;20025;-78
2022/04/23 12:49:50;;;;;;;2.60;1.88;;;22.70;86.90;;;;;;4988660;28;20027;-76
2022/04/23 12:52:21;;;;;;;2.43;1.60;;;22.80;85.90;;;;;;5004036;28;20030;-78
2022/04/23 12:55:22;;;;;;;2.30;1.48;;;23.00;85.90;;;;;;5005500;28;20265;-74
2022/04/23 12:58:03;;;;;;;3.17;1.95;;;23.10;83.30;;;;;;5006107;28;20034;-74
2022/04/23 13:00:33;;;;;;;2.88;1.67;;;23.30;83.30;;;;;;5005721;28;20117;-75
2022/04/23 13:03:11;;;;;;;3.15;1.77;;;23.20;82.60;;;;;;5006119;28;20109;-76
2022/04/23 13:05:37;;;;;;;4.30;1.70;;;23.20;84.10;;;;;;5005733;28;20022;-75
2022/04/23 13:10:47;;;;;;;3.70;1.95;;;23.10;84.50;;;;;;5006014;28;20049;-77
2022/04/23 13:13:13;;;;;;;3.13;1.92;;;23.10;83.20;;;;;;5019711;28;20034;-76
2022/04/23 13:15:39;;;;;;;4.85;1.80;;;23.20;85.20;;;;;;5025476;28;20036;-76
2022/04/23 13:18:06;;;;;;;2.45;1.60;;;23.20;84.10;;;;;;5025363;28;20026;-79
2022/04/23 13:20:33;;;;;;;8.82;1.83;;;23.40;87.20;;;;;;5005967;28;20062;-75
2022/04/23 13:22:59;;;;;;;2.83;1.85;;;23.70;84.10;;;;;;5011749;28;20037;-77
2022/04/23 13:25:29;;;;;;;5.30;2.05;;;23.70;84.20;;;;;;5010854;28;20049;-76
2022/04/23 13:27:55;;;;;;;15.13;1.95;;;23.60;81.80;;;;;;5005426;28;20026;-78
2022/04/23 13:30:21;;;;;;;6.85;1.92;;;23.70;81.20;;;;;;5025249;28;20030;-78
2022/04/23 13:32:47;;;;;;;4.22;2.00;;;23.70;81.80;;;;;;5025211;28;20026;-76
2022/04/23 13:35:15;;;;;;;2.90;1.55;;;23.70;84.10;;;;;;5026699;28;20485;-73
2022/04/23 13:37:43;;;;;;;1.98;1.35;;;23.80;81.80;;;;;;5013597;28;20030;-74